Zion, Iowa
Current Conditions -  °F | °C
As of 10:15 AM on Wednesday 28 Jan 2015 (Local Time) from KCSQ Reporting Station
Clear Clear  
Wind Chill: 25°   Ceiling: Unl
Heat Index: 36°   Visibility: 9mi
Dew Point: 34°   Wind: 21mph
Humidity: 93%   Direction: 150°SSE
Pressure: 29.87"   Gusts: NA
Location:  41.2318°N, 94.3386°W
Report Text: KCSQ 281615Z AUTO 15018KT 9SM CLR 02/01 A2987 RMK AO2
Loading
Personal Weather Stations






























Interactive Weather Map New forecast layout! Learn more

10-Day Weather Forecast

Advertisements
Track Severe Weather on mobile